Houlton, ME

8:39 AM EDT on July 28, 2014 (GMT -0400)
Houlton International (KHUL) Elev 492 ft | 46.12 °N, 67.79 °W | Change Station

Current weather conditions updated 46 minutes ago

Overcast
Overcast
63 °F
Feels Like 63 °F
N
6
Wind Variable Wind from SSE

Today is forecast to be Cooler than yesterday. Afternoon showers and thunderstorms.

Today
High -- | Low -- °F
--% Chance of Precip.
Yesterday
High -- | Low -- °F
Precip. -- in
5:08 AM 8:06 PM
New Moon, 2% visible
Pressure 29.72 in
Visibility 5.0 miles
Clouds Overcast 300 ft
Dew Point 62 °F
Humidity 97%
Rainfall 0.01 in
Snow Depth Not available.
UV 1 out of 12
Pollen .60 out of 12
Ozone Good
PM2.5 Good
Flu Activity Not available.
METAR KHUL 281153Z AUTO 16005KT 5SM BR OVC003 17/17 A2972 RMK AO2 SLP062 60001 70015 T01720167 10178 20167 51008

More Conditions Fewer Conditions

Pressure 29.72 in
Visibility 5.0 miles
Clouds Overcast 300 ft
Dew Point 62 °F
Humidity 97%
Rainfall 0.01 in
Snow Depth Not available.
UV 1 out of 12
Pollen .60 out of 12
Ozone Good
PM2.5 Good
Flu Activity Not available.
METAR KHUL 281153Z AUTO 16005KT 5SM BR OVC003 17/17 A2972 RMK AO2 SLP062 60001 70015 T01720167 10178 20167 51008

More Conditions Fewer Conditions

10-Day Weather Forecast

Almanac

Astronomy

Jul. 28, 2014 Rise Set
Actual Time 5:08 AM EDT 8:06 PM EDT
Civil Twilight 4:33 AM EDT 8:41 PM EDT
Nautical Twilight 3:47 AM EDT 9:26 PM EDT
Astronomical Twilight 2:53 AM EDT 10:19 PM EDT
Moon 6:55 AM EDT 8:35 PM EDT
Length of Visible Light 16h 08m
Length of Day
14h 57m
Tomorrow will be 2m 23s shorter.
New Moon, 2% of the Moon is Illuminated
Today
New Moon
Aug 3
First Quarter
Aug 10
Full
Aug 17
Last Quarter
Aug 25
New

Today's Extremes

State Highs State Lows

Community

WunderPhotos

Upload Photos

1,738,311 photos uploaded!

Nearby

Air Quality

  Air Quality AQ Index Pollutant
Yesterday Good
PM2.5
Yesterday Good
OZONE
Current Good
OZONE
Current Good
PM2.5
Monday Good
OZONE
Monday Good
PM2.5
Tuesday Good
OZONE
Tuesday Good
PM2.5

Snow Depth

Station Depth Elevation
No new snow has been reported.

Earthquake Activity

City Distance Mag. Time & Date
No recent earthquake activity has been reported nearby.
Minimum magnitude displayed is 2.5.

Coastal Water Temperatures

Place Temperature
No Stations Reporting

Nearby Weather Stations

Station Location Temp. Dew Point Humidity Wind Precip. Elev Updated Type
Micmac Environmental, Littleton, ME 63.3 °F 63 °F 98% SE  at  3.0 mph 0.00 in / hr 574 ft 8:39 AM EDT Rapid Fire
Grafton, Woodstock 62.4 °F 60 °F 91% SE  at  0.0 mph 0.00 in / hr 500 ft 9:39 AM ADT Rapid Fire
West Road, Monticello, ME 62.7 °F 62 °F 97% East  at  4.0 mph 0.00 in / hr 656 ft 8:39 AM EDT Rapid Fire

Show More Stations Show Fewer Stations